Terminal Aerodrome Forecast
Issued by NWS

Home | Current Version | Previous Version | Text Only | Print | Product List | Glossary On
Versions: 1 2 3 4 5 6 7 8 9 10 11 12 13 14 15 16 17
724
FTUS44 KBMX 211734
TAFANB
TAF
KANB 211734Z 2118/2218 05006KT P6SM SCT040
     FM220100 19002KT P6SM SCT035 SCT250
      TEMPO 2210/2213 4SM BR
     FM221500 23003KT P6SM SCT040=

USA.gov is the U.S. government's official web portal to all federal, state and local government web resources and services.